N228WA RJCC-RJCO
Flight info
| Callsign | N228WA |
|---|---|
| Flight time | 0h 15m |
| Altitude | 3500 |
| Route | SAPPORO CITY |
| Aircraft | PA28/L-SDE3FGHIRWY/S |
Departure
| Time | 2026-04-30 05:55 |
|---|---|
| Airport | New Chitose Airport (RJCC) |
Arrival
| Time | 2026-04-30 06:10 |
|---|---|
| Airport | Sapporo Okadama Airport (RJCO) |
| Time | Latitude | Longitude | Altitude | Speed | Heading |
|---|---|---|---|---|---|
| 2026-04-30 05:18 | 42.80654 | 141.67088 | 55 ft | 0 kts | 82° |
| 2026-04-30 05:42 | 42.80654 | 141.67090 | 55 ft | 0 kts | 82° |
| 2026-04-30 05:44 | 42.80653 | 141.67093 | 55 ft | 1 kts | 150° |
| 2026-04-30 05:44 | 42.80646 | 141.67062 | 54 ft | 6 kts | 275° |
| 2026-04-30 05:44 | 42.80609 | 141.67001 | 53 ft | 10 kts | 206° |
| 2026-04-30 05:44 | 42.80539 | 141.66971 | 48 ft | 10 kts | 188° |
| 2026-04-30 05:45 | 42.80465 | 141.66972 | 41 ft | 10 kts | 174° |
| 2026-04-30 05:45 | 42.80396 | 141.66983 | 37 ft | 9 kts | 172° |
| 2026-04-30 05:45 | 42.80338 | 141.66995 | 37 ft | 8 kts | 171° |
| 2026-04-30 05:45 | 42.80267 | 141.67009 | 41 ft | 13 kts | 174° |
| 2026-04-30 05:46 | 42.80158 | 141.67026 | 46 ft | 15 kts | 172° |
| 2026-04-30 05:46 | 42.80061 | 141.67042 | 52 ft | 12 kts | 172° |
| 2026-04-30 05:46 | 42.79974 | 141.67058 | 55 ft | 12 kts | 171° |
| 2026-04-30 05:46 | 42.79883 | 141.67075 | 58 ft | 13 kts | 174° |
| 2026-04-30 05:47 | 42.79775 | 141.67091 | 55 ft | 16 kts | 169° |
| 2026-04-30 05:47 | 42.79671 | 141.67111 | 52 ft | 15 kts | 172° |
| 2026-04-30 05:47 | 42.79559 | 141.67131 | 52 ft | 17 kts | 174° |
| 2026-04-30 05:47 | 42.79443 | 141.67151 | 54 ft | 16 kts | 173° |
| 2026-04-30 05:48 | 42.79341 | 141.67169 | 58 ft | 13 kts | 173° |
| 2026-04-30 05:48 | 42.79251 | 141.67184 | 61 ft | 12 kts | 173° |
| 2026-04-30 05:48 | 42.79206 | 141.67246 | 62 ft | 12 kts | 69° |
| 2026-04-30 05:48 | 42.79230 | 141.67368 | 61 ft | 14 kts | 81° |
| 2026-04-30 05:49 | 42.79241 | 141.67503 | 63 ft | 14 kts | 86° |
| 2026-04-30 05:49 | 42.79248 | 141.67631 | 66 ft | 13 kts | 81° |
| 2026-04-30 05:49 | 42.79261 | 141.67752 | 68 ft | 12 kts | 84° |
| 2026-04-30 05:49 | 42.79269 | 141.67876 | 67 ft | 13 kts | 90° |
| 2026-04-30 05:50 | 42.79260 | 141.68010 | 66 ft | 14 kts | 100° |
| 2026-04-30 05:50 | 42.79234 | 141.68133 | 70 ft | 12 kts | 110° |
| 2026-04-30 05:50 | 42.79201 | 141.68228 | 72 ft | 11 kts | 121° |
| 2026-04-30 05:50 | 42.79155 | 141.68326 | 72 ft | 13 kts | 128° |
| 2026-04-30 05:51 | 42.79083 | 141.68420 | 71 ft | 15 kts | 140° |
| 2026-04-30 05:51 | 42.79001 | 141.68498 | 72 ft | 11 kts | 151° |
| 2026-04-30 05:51 | 42.78950 | 141.68556 | 73 ft | 9 kts | 111° |
| 2026-04-30 05:51 | 42.78943 | 141.68666 | 71 ft | 13 kts | 107° |
| 2026-04-30 05:52 | 42.78880 | 141.68761 | 67 ft | 12 kts | 141° |
| 2026-04-30 05:52 | 42.78824 | 141.68813 | 67 ft | 6 kts | 160° |
| 2026-04-30 05:52 | 42.78811 | 141.68816 | 67 ft | 0 kts | 173° |
| 2026-04-30 05:53 | 42.78702 | 141.68843 | 70 ft | 35 kts | 169° |
| 2026-04-30 05:54 | 42.78419 | 141.69016 | 145 ft | 46 kts | 140° |
| 2026-04-30 05:54 | 42.78116 | 141.69290 | 226 ft | 54 kts | 147° |
| 2026-04-30 05:54 | 42.77740 | 141.69495 | 408 ft | 58 kts | 169° |
| 2026-04-30 05:54 | 42.77356 | 141.69612 | 616 ft | 56 kts | 156° |
| 2026-04-30 05:55 | 42.77217 | 141.70126 | 792 ft | 65 kts | 79° |
| 2026-04-30 05:55 | 42.77470 | 141.70599 | 954 ft | 72 kts | 28° |
| 2026-04-30 05:55 | 42.77894 | 141.70692 | 1175 ft | 65 kts | 329° |
| 2026-04-30 05:55 | 42.78189 | 141.70296 | 1402 ft | 54 kts | 270° |
| 2026-04-30 05:56 | 42.78222 | 141.69716 | 1565 ft | 52 kts | 280° |
| 2026-04-30 05:56 | 42.78303 | 141.69095 | 1433 ft | 86 kts | 277° |
| 2026-04-30 05:56 | 42.78630 | 141.68304 | 1381 ft | 103 kts | 306° |
| 2026-04-30 05:56 | 42.79156 | 141.67607 | 1385 ft | 108 kts | 313° |
| 2026-04-30 05:57 | 42.79696 | 141.66902 | 1441 ft | 107 kts | 317° |
| 2026-04-30 05:57 | 42.80403 | 141.66457 | 1399 ft | 115 kts | 335° |
| 2026-04-30 05:57 | 42.81159 | 141.66013 | 1308 ft | 122 kts | 332° |
| 2026-04-30 05:57 | 42.81919 | 141.65511 | 1258 ft | 116 kts | 332° |
| 2026-04-30 05:58 | 42.82637 | 141.65096 | 1282 ft | 108 kts | 337° |
| 2026-04-30 05:58 | 42.83336 | 141.64790 | 1291 ft | 104 kts | 339° |
| 2026-04-30 05:58 | 42.84040 | 141.64618 | 1296 ft | 102 kts | 352° |
| 2026-04-30 05:58 | 42.84641 | 141.64220 | 1342 ft | 99 kts | 316° |
| 2026-04-30 05:59 | 42.85236 | 141.63684 | 1375 ft | 103 kts | 335° |
| 2026-04-30 05:59 | 42.85951 | 141.63490 | 1413 ft | 107 kts | 340° |
| 2026-04-30 05:59 | 42.86590 | 141.62961 | 1410 ft | 110 kts | 317° |
| 2026-04-30 05:59 | 42.87183 | 141.62274 | 1382 ft | 114 kts | 314° |
| 2026-04-30 06:00 | 42.87751 | 141.61511 | 1408 ft | 112 kts | 309° |
| 2026-04-30 06:00 | 42.88255 | 141.60707 | 1545 ft | 100 kts | 302° |
| 2026-04-30 06:00 | 42.88646 | 141.59878 | 1368 ft | 120 kts | 297° |
| 2026-04-30 06:00 | 42.89039 | 141.58896 | 1375 ft | 117 kts | 293° |
| 2026-04-30 06:01 | 42.89384 | 141.57895 | 1377 ft | 116 kts | 290° |
| 2026-04-30 06:01 | 42.89538 | 141.56825 | 1276 ft | 120 kts | 261° |
| 2026-04-30 06:01 | 42.89551 | 141.55707 | 1203 ft | 122 kts | 288° |
| 2026-04-30 06:01 | 42.90177 | 141.54976 | 1191 ft | 123 kts | 339° |
| 2026-04-30 06:02 | 42.91012 | 141.55029 | 1224 ft | 120 kts | 17° |
| 2026-04-30 06:02 | 42.91813 | 141.55429 | 1206 ft | 121 kts | 16° |
| 2026-04-30 06:02 | 42.92621 | 141.55801 | 1186 ft | 122 kts | 15° |
| 2026-04-30 06:02 | 42.93400 | 141.56128 | 1292 ft | 113 kts | 16° |
| 2026-04-30 06:03 | 42.94150 | 141.56433 | 1362 ft | 111 kts | 13° |
| 2026-04-30 06:03 | 42.94929 | 141.56592 | 1372 ft | 113 kts | 353° |
| 2026-04-30 06:03 | 42.95676 | 141.56265 | 1353 ft | 116 kts | 329° |
| 2026-04-30 06:03 | 42.96292 | 141.55566 | 1334 ft | 116 kts | 306° |
| 2026-04-30 06:04 | 42.96893 | 141.54790 | 1308 ft | 117 kts | 317° |
| 2026-04-30 06:04 | 42.97522 | 141.54131 | 1356 ft | 115 kts | 321° |
| 2026-04-30 06:04 | 42.98180 | 141.53523 | 1410 ft | 112 kts | 323° |
| 2026-04-30 06:05 | 42.99522 | 141.52402 | 1433 ft | 115 kts | 326° |
| 2026-04-30 06:05 | 43.00229 | 141.51839 | 1392 ft | 118 kts | 327° |
| 2026-04-30 06:05 | 43.00950 | 141.51273 | 1365 ft | 121 kts | 327° |
| 2026-04-30 06:05 | 43.01696 | 141.50691 | 1314 ft | 122 kts | 327° |
| 2026-04-30 06:06 | 43.02414 | 141.50131 | 1322 ft | 120 kts | 327° |
| 2026-04-30 06:06 | 43.03153 | 141.49556 | 1271 ft | 122 kts | 327° |
| 2026-04-30 06:06 | 43.03834 | 141.48874 | 1216 ft | 123 kts | 316° |
| 2026-04-30 06:06 | 43.04459 | 141.48065 | 1124 ft | 120 kts | 306° |
| 2026-04-30 06:07 | 43.05043 | 141.47249 | 959 ft | 119 kts | 311° |
| 2026-04-30 06:07 | 43.05597 | 141.46475 | 881 ft | 113 kts | 312° |
| 2026-04-30 06:07 | 43.06151 | 141.45721 | 773 ft | 110 kts | 312° |
| 2026-04-30 06:07 | 43.06673 | 141.45010 | 753 ft | 104 kts | 310° |
| 2026-04-30 06:08 | 43.07192 | 141.44296 | 798 ft | 104 kts | 310° |
| 2026-04-30 06:08 | 43.07699 | 141.43610 | 885 ft | 101 kts | 310° |
| 2026-04-30 06:08 | 43.08185 | 141.42946 | 978 ft | 99 kts | 310° |
| 2026-04-30 06:08 | 43.08715 | 141.42227 | 910 ft | 110 kts | 311° |
| 2026-04-30 06:09 | 43.09290 | 141.41446 | 676 ft | 118 kts | 315° |
| 2026-04-30 06:09 | 43.09869 | 141.40790 | 519 ft | 100 kts | 313° |
| 2026-04-30 06:09 | 43.10312 | 141.40105 | 401 ft | 90 kts | 306° |
| 2026-04-30 06:09 | 43.10743 | 141.39510 | 246 ft | 86 kts | 313° |
| 2026-04-30 06:10 | 43.11155 | 141.38934 | 69 ft | 83 kts | 309° |
| 2026-04-30 06:10 | 43.11543 | 141.38406 | -1 ft | 68 kts | 309° |
| 2026-04-30 06:10 | 43.11723 | 141.38263 | -5 ft | 0 kts | 218° |